createdAt,value
2023-04-02T00:00:21.268Z,98463.00
2023-04-02T00:01:53.515Z,98464.00
2023-04-02T00:03:26.972Z,98463.00
2023-04-02T00:05:51.459Z,98463.00
2023-04-02T00:07:31.315Z,98473.00
2023-04-02T00:09:38.187Z,98481.00
2023-04-02T00:11:33.073Z,98477.00
2023-04-02T00:13:23.192Z,98487.00
2023-04-02T00:14:58.702Z,98484.00
2023-04-02T00:16:34.416Z,98494.00
2023-04-02T00:18:08.537Z,98492.00
2023-04-02T00:19:49.146Z,98493.00
2023-04-02T00:21:23.988Z,98507.00
2023-04-02T00:22:57.659Z,98511.00
2023-04-02T00:24:30.855Z,98507.00
2023-04-02T00:26:21.413Z,98508.00
2023-04-02T00:27:55.083Z,98517.00
2023-04-02T00:29:28.317Z,98518.00
2023-04-02T00:31:01.880Z,98517.00
2023-04-02T00:32:37.229Z,98528.00
2023-04-02T00:34:18.160Z,98530.00
2023-04-02T00:35:54.156Z,98536.00
2023-04-02T00:37:38.662Z,98531.00
2023-04-02T00:39:20.963Z,98537.00
2023-04-02T00:40:58.227Z,98538.00
2023-04-02T00:42:32.198Z,98543.00
2023-04-02T00:44:07.089Z,98552.00
2023-04-02T00:45:41.820Z,98551.00
2023-04-02T00:47:22.544Z,98559.00
2023-04-02T00:48:58.859Z,98559.00
2023-04-02T00:50:37.238Z,98568.00
2023-04-02T00:52:16.460Z,98562.00
2023-04-02T00:53:52.315Z,98570.00
2023-04-02T00:55:33.617Z,98570.00
2023-04-02T00:57:18.331Z,98579.00
2023-04-02T00:58:53.898Z,98576.00
2023-04-02T01:00:31.284Z,98593.00
2023-04-02T01:02:29.656Z,98586.00
2023-04-02T01:04:06.132Z,98585.00
2023-04-02T01:05:38.831Z,98592.00
2023-04-02T01:07:13.175Z,98600.00
2023-04-02T01:09:12.598Z,98597.00
2023-04-02T01:11:03.099Z,98607.00
2023-04-02T01:12:49.844Z,98605.00
2023-04-02T01:14:40.552Z,98606.00
2023-04-02T01:16:27.201Z,98618.00
2023-04-02T01:18:33.169Z,98614.00
2023-04-02T01:20:43.023Z,98603.00
2023-04-02T01:22:23.944Z,98617.00
2023-04-02T01:24:05.387Z,98618.00
2023-04-02T01:25:48.407Z,98622.00
2023-04-02T01:27:28.924Z,98635.00
2023-04-02T01:29:12.016Z,98634.00
2023-04-02T01:30:48.764Z,98632.00
2023-04-02T01:32:24.661Z,98635.00
2023-04-02T01:33:57.458Z,98644.00
2023-04-02T01:35:39.730Z,98646.00
2023-04-02T01:37:36.657Z,98648.00
2023-04-02T01:39:25.783Z,98664.00
2023-04-02T01:41:09.048Z,98657.00
2023-04-02T01:42:56.220Z,98652.00
2023-04-02T01:44:38.365Z,98661.00
2023-04-02T01:46:27.446Z,98661.00
2023-04-02T01:48:01.023Z,98674.00
2023-04-02T01:49:33.714Z,98685.00
2023-04-02T01:51:09.344Z,98673.00
2023-04-02T01:52:46.726Z,98680.00
2023-04-02T01:54:22.678Z,98677.00
2023-04-02T01:56:00.299Z,98685.00
2023-04-02T01:57:33.049Z,98694.00
2023-04-02T01:59:09.171Z,98698.00
2023-04-02T02:00:51.829Z,98691.00
2023-04-02T02:02:25.521Z,98700.00
2023-04-02T02:03:58.032Z,98701.00
2023-04-02T02:05:32.148Z,98701.00
2023-04-02T02:07:10.287Z,98702.00
2023-04-02T02:08:50.753Z,98705.00
2023-04-02T02:10:29.342Z,98702.00
2023-04-02T02:12:05.196Z,98716.00
2023-04-02T02:13:37.588Z,98713.00
2023-04-02T02:15:17.599Z,98695.00
2023-04-02T02:16:56.477Z,98718.00
2023-04-02T02:18:30.979Z,98724.00
2023-04-02T02:20:10.818Z,98726.00
2023-04-02T02:21:48.146Z,98733.00
2023-04-02T02:23:22.569Z,98739.00
2023-04-02T02:24:57.444Z,98727.00
2023-04-02T02:26:34.030Z,98739.00
2023-04-02T02:28:11.799Z,98743.00
2023-04-02T02:29:52.451Z,98743.00
2023-04-02T02:31:33.373Z,98746.00
2023-04-02T02:33:18.441Z,98740.00
2023-04-02T02:35:03.778Z,98752.00
2023-04-02T02:36:49.022Z,98766.00
2023-04-02T02:38:41.062Z,98769.00
2023-04-02T02:40:30.611Z,98764.00
2023-04-02T02:42:11.470Z,98773.00
2023-04-02T02:43:58.520Z,98775.00
2023-04-02T02:45:38.763Z,98773.00
2023-04-02T02:47:19.569Z,98766.00
2023-04-02T02:48:56.262Z,98785.00
2023-04-02T02:50:32.581Z,98780.00
2023-04-02T02:52:18.088Z,98787.00
2023-04-02T02:54:05.336Z,98786.00
2023-04-02T02:55:41.595Z,98799.00
2023-04-02T02:57:27.735Z,98805.00
2023-04-02T02:59:02.161Z,98806.00
2023-04-02T03:00:40.919Z,98812.00
2023-04-02T03:02:17.032Z,98819.00
2023-04-02T03:03:56.438Z,98812.00
2023-04-02T03:05:31.814Z,98822.00
2023-04-02T03:07:12.081Z,98825.00
2023-04-02T03:08:55.020Z,98828.00
2023-04-02T03:10:41.911Z,98829.00
2023-04-02T03:12:36.022Z,98835.00
2023-04-02T03:14:22.317Z,98847.00
2023-04-02T03:16:02.240Z,98841.00
2023-04-02T03:17:42.163Z,98844.00
2023-04-02T03:19:30.155Z,98854.00
2023-04-02T03:21:17.948Z,98842.00
2023-04-02T03:22:59.048Z,98849.00
2023-04-02T03:24:37.762Z,98849.00
2023-04-02T03:26:18.896Z,98853.00
2023-04-02T03:28:00.580Z,98868.00
2023-04-02T03:29:38.088Z,98866.00
2023-04-02T03:31:19.902Z,98864.00
2023-04-02T03:33:03.086Z,98865.00
2023-04-02T03:34:44.235Z,98878.00
2023-04-02T03:36:28.394Z,98876.00
2023-04-02T03:38:13.000Z,98886.00
2023-04-02T03:39:55.211Z,98889.00
2023-04-02T03:41:39.101Z,98892.00
2023-04-02T03:43:22.836Z,98891.00
2023-04-02T03:45:01.427Z,98900.00
2023-04-02T03:46:41.008Z,98899.00
2023-04-02T03:48:21.342Z,98893.00
2023-04-02T03:50:02.585Z,98914.00
2023-04-02T03:51:41.879Z,98909.00
2023-04-02T03:53:15.266Z,98921.00
2023-04-02T03:54:54.186Z,98918.00
2023-04-02T03:56:33.985Z,98929.00
2023-04-02T03:58:18.563Z,98928.00
2023-04-02T04:00:02.161Z,98929.00
2023-04-02T04:01:46.506Z,98942.00
2023-04-02T04:03:26.380Z,98939.00
2023-04-02T04:05:03.500Z,98942.00
2023-04-02T04:06:44.977Z,98945.00
2023-04-02T04:08:23.120Z,98948.00
2023-04-02T04:09:59.818Z,98956.00
2023-04-02T04:11:37.199Z,98952.00
2023-04-02T04:13:18.784Z,98954.00
2023-04-02T04:15:02.925Z,98956.00
2023-04-02T04:16:53.846Z,98963.00
2023-04-02T04:18:41.223Z,98967.00
2023-04-02T04:20:25.262Z,98966.00
2023-04-02T04:22:11.515Z,98968.00
2023-04-02T04:23:51.985Z,98980.00
2023-04-02T04:25:33.649Z,98977.00
2023-04-02T04:27:25.093Z,98985.00
2023-04-02T04:29:15.462Z,98990.00
2023-04-02T04:31:00.021Z,98994.00
2023-04-02T04:32:39.205Z,98996.00
2023-04-02T04:34:29.983Z,98999.00
2023-04-02T04:36:05.466Z,99009.00
2023-04-02T04:37:49.704Z,99004.00
2023-04-02T04:39:35.885Z,99000.00
2023-04-02T04:41:17.206Z,99014.00
2023-04-02T04:43:00.744Z,99022.00
2023-04-02T04:44:45.288Z,99024.00
2023-04-02T04:46:32.184Z,99021.00
2023-04-02T04:48:11.692Z,99028.00
2023-04-02T04:49:51.346Z,99023.00
2023-04-02T04:51:34.754Z,99035.00
2023-04-02T04:53:17.410Z,99047.00
2023-04-02T04:54:51.109Z,99036.00
2023-04-02T04:56:31.696Z,99051.00
2023-04-02T04:58:25.496Z,99049.00
2023-04-02T05:00:07.967Z,99056.00
2023-04-02T05:01:51.591Z,99063.00
2023-04-02T05:03:37.225Z,99066.00
2023-04-02T05:05:22.180Z,99074.00
2023-04-02T05:07:08.264Z,99079.00
2023-04-02T05:08:47.330Z,99080.00
2023-04-02T05:10:31.534Z,99081.00
2023-04-02T05:12:19.562Z,99088.00
2023-04-02T05:13:59.282Z,99092.00
2023-04-02T05:15:38.985Z,99094.00
2023-04-02T05:17:19.872Z,99101.00
2023-04-02T05:19:02.885Z,99108.00
2023-04-02T05:20:47.459Z,99118.00
2023-04-02T05:22:36.377Z,99112.00
2023-04-02T05:24:49.612Z,99117.00
2023-04-02T05:26:31.457Z,99131.00
2023-04-02T05:28:14.201Z,99135.00
2023-04-02T05:29:53.955Z,99146.00
2023-04-02T05:31:36.559Z,99140.00
2023-04-02T05:33:23.886Z,99151.00
2023-04-02T05:35:00.137Z,99161.00
2023-04-02T05:36:34.225Z,99156.00
2023-04-02T05:38:08.573Z,99169.00
2023-04-02T05:39:46.732Z,99174.00
2023-04-02T05:41:28.135Z,99170.00
2023-04-02T05:43:08.720Z,99178.00
2023-04-02T05:45:02.834Z,99172.00
2023-04-02T05:46:46.772Z,99169.00
2023-04-02T05:48:28.305Z,99178.00
2023-04-02T05:50:24.218Z,99190.00
2023-04-02T05:52:03.302Z,99181.00
2023-04-02T05:53:41.671Z,99186.00
2023-04-02T05:55:35.893Z,99194.00
2023-04-02T05:57:24.897Z,99199.00
2023-04-02T05:59:12.235Z,99192.00
2023-04-02T06:01:25.044Z,99202.00
2023-04-02T06:03:08.080Z,99207.00
2023-04-02T06:04:51.349Z,99212.00
2023-04-02T06:06:45.081Z,99208.00
2023-04-02T06:08:27.412Z,99213.00
2023-04-02T06:10:13.263Z,99212.00
2023-04-02T06:11:53.925Z,99222.00
2023-04-02T06:13:29.011Z,99235.00
2023-04-02T06:15:03.399Z,99232.00
2023-04-02T06:16:38.371Z,99235.00
2023-04-02T06:18:19.645Z,99242.00
2023-04-02T06:19:57.582Z,99242.00
2023-04-02T06:21:31.133Z,99257.00
2023-04-02T06:23:12.587Z,99250.00
2023-04-02T06:24:49.992Z,99259.00
2023-04-02T06:26:32.991Z,99258.00
2023-04-02T06:28:13.045Z,99253.00
2023-04-02T06:30:03.481Z,99260.00
2023-04-02T06:31:47.851Z,99277.00
2023-04-02T06:33:22.489Z,99268.00
2023-04-02T06:34:56.103Z,99273.00
2023-04-02T06:36:29.294Z,99263.00
2023-04-02T06:38:18.194Z,99286.00
2023-04-02T06:39:51.316Z,99280.00
2023-04-02T06:41:27.364Z,99288.00
2023-04-02T06:43:26.208Z,99289.00
2023-04-02T06:45:27.337Z,99287.00
2023-04-02T06:47:27.843Z,99297.00
2023-04-02T06:49:14.998Z,99313.00
2023-04-02T06:50:55.613Z,99317.00
2023-04-02T06:52:36.064Z,99311.00
2023-04-02T06:54:16.048Z,99318.00
2023-04-02T06:55:59.890Z,99327.00
2023-04-02T06:57:37.374Z,99333.00
2023-04-02T06:59:12.752Z,99338.00
2023-04-02T07:00:48.349Z,99336.00
2023-04-02T07:02:36.732Z,99340.00
2023-04-02T07:04:11.577Z,99338.00
2023-04-02T07:05:48.804Z,99349.00
2023-04-02T07:07:22.242Z,99351.00
2023-04-02T07:08:56.140Z,99347.00
2023-04-02T07:10:30.272Z,99350.00
2023-04-02T07:12:03.452Z,99340.00
2023-04-02T07:13:37.965Z,99353.00
2023-04-02T07:15:16.490Z,99370.00
2023-04-02T07:16:49.785Z,99363.00
2023-04-02T07:18:27.042Z,99362.00
2023-04-02T07:20:00.522Z,99373.00
2023-04-02T07:21:33.997Z,99372.00
2023-04-02T07:23:07.471Z,99376.00
2023-04-02T07:24:40.915Z,99384.00
2023-04-02T07:26:17.105Z,99387.00
2023-04-02T07:27:51.579Z,99390.00
2023-04-02T07:29:25.990Z,99397.00
2023-04-02T07:30:59.329Z,99401.00
2023-04-02T07:32:32.531Z,99396.00
2023-04-02T07:34:07.880Z,99410.00
2023-04-02T07:35:41.144Z,99401.00
2023-04-02T07:37:15.530Z,99408.00
2023-04-02T07:38:49.493Z,99411.00
2023-04-02T07:40:24.237Z,99417.00
2023-04-02T07:42:01.344Z,99416.00
2023-04-02T07:43:35.468Z,99416.00
2023-04-02T07:45:11.970Z,99424.00
2023-04-02T07:46:45.192Z,99418.00
2023-04-02T07:48:18.339Z,99435.00
2023-04-02T07:49:54.791Z,99430.00
2023-04-02T07:51:28.237Z,99438.00
2023-04-02T07:53:02.230Z,99442.00
2023-04-02T07:54:36.012Z,99443.00
2023-04-02T07:56:15.460Z,99450.00
2023-04-02T07:57:52.238Z,99439.00
2023-04-02T07:59:25.531Z,99445.00
2023-04-02T08:01:01.513Z,99453.00
2023-04-02T08:02:34.784Z,99461.00
2023-04-02T08:04:08.346Z,99469.00
2023-04-02T08:05:41.625Z,99460.00
2023-04-02T08:07:15.166Z,99472.00
2023-04-02T08:08:48.587Z,99464.00
2023-04-02T08:10:21.692Z,99473.00
2023-04-02T08:11:54.808Z,99473.00
2023-04-02T08:13:27.893Z,99472.00
2023-04-02T08:15:01.173Z,99485.00
2023-04-02T08:16:48.168Z,99489.00
2023-04-02T08:18:23.941Z,99494.00
2023-04-02T08:20:01.106Z,99495.00
2023-04-02T08:21:34.529Z,99499.00
2023-04-02T08:23:15.404Z,99503.00
2023-04-02T08:24:48.560Z,99507.00
2023-04-02T08:26:21.898Z,99513.00
2023-04-02T08:27:54.983Z,99506.00
2023-04-02T08:29:32.239Z,99499.00
2023-04-02T08:31:05.525Z,99508.00
2023-04-02T08:32:40.961Z,99520.00
2023-04-02T08:34:14.645Z,99517.00
2023-04-02T08:35:49.780Z,99521.00
2023-04-02T08:37:23.232Z,99527.00
2023-04-02T08:38:56.575Z,99540.00
2023-04-02T08:40:36.585Z,99532.00
2023-04-02T08:42:26.191Z,99539.00
2023-04-02T08:44:22.757Z,99533.00
2023-04-02T08:46:10.668Z,99545.00
2023-04-02T08:47:47.229Z,99550.00
2023-04-02T08:49:30.259Z,99553.00
2023-04-02T08:51:07.349Z,99553.00
2023-04-02T08:52:41.051Z,99553.00
2023-04-02T08:54:25.627Z,99553.00
2023-04-02T08:56:05.437Z,99560.00
2023-04-02T08:57:48.627Z,99554.00
2023-04-02T08:59:33.614Z,99552.00
2023-04-02T09:01:11.698Z,99568.00
2023-04-02T09:02:53.787Z,99570.00
2023-04-02T09:04:28.065Z,99577.00
2023-04-02T09:06:04.708Z,99575.00
2023-04-02T09:07:38.004Z,99576.00
2023-04-02T09:09:14.373Z,99580.00
2023-04-02T09:10:55.815Z,99586.00
2023-04-02T09:12:32.773Z,99595.00
2023-04-02T09:14:17.227Z,99589.00
2023-04-02T09:15:53.624Z,99600.00
2023-04-02T09:17:31.185Z,99606.00
2023-04-02T09:19:20.558Z,99603.00
2023-04-02T09:20:53.749Z,99615.00
2023-04-02T09:22:31.673Z,99613.00
2023-04-02T09:24:06.529Z,99623.00
2023-04-02T09:25:54.091Z,99622.00
2023-04-02T09:27:37.092Z,99622.00
2023-04-02T09:29:40.197Z,99625.00
2023-04-02T09:31:23.474Z,99633.00
2023-04-02T09:33:01.007Z,99628.00
2023-04-02T09:34:37.586Z,99634.00
2023-04-02T09:36:26.916Z,99637.00
2023-04-02T09:38:19.410Z,99644.00
2023-04-02T09:39:52.768Z,99648.00
2023-04-02T09:41:30.421Z,99653.00
2023-04-02T09:43:13.706Z,99648.00
2023-04-02T09:44:46.888Z,99656.00
2023-04-02T09:46:25.726Z,99657.00
2023-04-02T09:47:59.730Z,99657.00
2023-04-02T09:49:37.300Z,99664.00
2023-04-02T09:51:17.580Z,99664.00
2023-04-02T09:52:51.420Z,99670.00
2023-04-02T09:54:26.362Z,99665.00
2023-04-02T09:56:15.496Z,99671.00
2023-04-02T09:57:51.965Z,99671.00
2023-04-02T09:59:25.405Z,99676.00
2023-04-02T10:00:58.826Z,99674.00
2023-04-02T10:02:33.047Z,99684.00
2023-04-02T10:04:33.044Z,99681.00
2023-04-02T10:06:11.359Z,99683.00
2023-04-02T10:07:46.625Z,99692.00
2023-04-02T10:09:31.244Z,99694.00
2023-04-02T10:11:10.948Z,99693.00
2023-04-02T10:12:51.481Z,99701.00
2023-04-02T10:14:31.260Z,99711.00
2023-04-02T10:16:12.593Z,99700.00
2023-04-02T10:17:52.457Z,99702.00
2023-04-02T10:19:35.824Z,99707.00
2023-04-02T10:21:13.921Z,99718.00
2023-04-02T10:22:47.871Z,99718.00
2023-04-02T10:24:21.179Z,99724.00
2023-04-02T10:26:05.151Z,99726.00
2023-04-02T10:27:48.255Z,99723.00
2023-04-02T10:29:50.470Z,99736.00
2023-04-02T10:31:29.633Z,99730.00
2023-04-02T10:33:13.168Z,99732.00
2023-04-02T10:34:58.362Z,99737.00
2023-04-02T10:36:52.506Z,99745.00
2023-04-02T10:38:43.440Z,99750.00
2023-04-02T10:40:25.564Z,99749.00
2023-04-02T10:42:06.139Z,99759.00
2023-04-02T10:44:12.530Z,99760.00
2023-04-02T10:45:55.407Z,99758.00
2023-04-02T10:47:41.081Z,99765.00
2023-04-02T10:49:29.781Z,99762.00
2023-04-02T10:51:08.276Z,99764.00
2023-04-02T10:52:50.988Z,99762.00
2023-04-02T10:54:41.407Z,99768.00
2023-04-02T10:56:15.864Z,99772.00
2023-04-02T10:57:49.523Z,99767.00
2023-04-02T10:59:28.651Z,99773.00
2023-04-02T11:01:08.451Z,99779.00
2023-04-02T11:02:50.966Z,99773.00
2023-04-02T11:04:32.067Z,99772.00
2023-04-02T11:06:17.643Z,99768.00
2023-04-02T11:08:01.831Z,99786.00
2023-04-02T11:09:43.751Z,99782.00
2023-04-02T11:11:21.293Z,99786.00
2023-04-02T11:13:02.437Z,99778.00
2023-04-02T11:14:36.487Z,99784.00
2023-04-02T11:16:15.076Z,99785.00
2023-04-02T11:17:49.167Z,99784.00
2023-04-02T11:19:27.418Z,99794.00
2023-04-02T11:21:07.252Z,99794.00
2023-04-02T11:22:41.406Z,99800.00
2023-04-02T11:24:37.224Z,99796.00
2023-04-02T11:26:41.650Z,99804.00
2023-04-02T11:28:28.012Z,99801.00
2023-04-02T11:30:14.022Z,99811.00
2023-04-02T11:31:47.420Z,99817.00
2023-04-02T11:33:44.280Z,99826.00
2023-04-02T11:35:40.523Z,99812.00
2023-04-02T11:37:38.250Z,99830.00
2023-04-02T11:39:17.524Z,99826.00
2023-04-02T11:40:55.720Z,99828.00
2023-04-02T11:42:33.183Z,99837.00
2023-04-02T11:44:22.343Z,99848.00
2023-04-02T11:45:59.433Z,99843.00
2023-04-02T11:47:33.422Z,99840.00
2023-04-02T11:49:57.305Z,99854.00
2023-04-02T11:51:56.588Z,99863.00
2023-04-02T11:53:36.534Z,99856.00
2023-04-02T11:55:30.607Z,99848.00
2023-04-02T11:57:21.438Z,99860.00
2023-04-02T11:59:12.790Z,99857.00
2023-04-02T12:01:25.925Z,99867.00
2023-04-02T12:03:28.287Z,99866.00
2023-04-02T12:05:27.096Z,99873.00
2023-04-02T12:07:26.771Z,99876.00
2023-04-02T12:09:17.170Z,99879.00
2023-04-02T12:10:57.146Z,99868.00
2023-04-02T12:12:37.750Z,99879.00
2023-04-02T12:14:48.414Z,99888.00
2023-04-02T12:16:25.242Z,99882.00
2023-04-02T12:18:12.450Z,99890.00
2023-04-02T12:19:51.000Z,99888.00
2023-04-02T12:21:28.500Z,99894.00
2023-04-02T12:23:01.873Z,99900.00
2023-04-02T12:24:35.545Z,99897.00
2023-04-02T12:26:37.027Z,99896.00
2023-04-02T12:28:22.274Z,99898.00
2023-04-02T12:29:57.158Z,99900.00
2023-04-02T12:31:30.660Z,99905.00
2023-04-02T12:33:22.501Z,99906.00
2023-04-02T12:34:58.568Z,99902.00
2023-04-02T12:36:31.752Z,99907.00
2023-04-02T12:38:05.170Z,99902.00
2023-04-02T12:39:38.378Z,99908.00
2023-04-02T12:41:26.982Z,99905.00
2023-04-02T12:43:00.239Z,99915.00
2023-04-02T12:44:34.836Z,99914.00
2023-04-02T12:46:10.755Z,99918.00
2023-04-02T12:47:46.411Z,99923.00
2023-04-02T12:49:37.570Z,99932.00
2023-04-02T12:51:11.824Z,99926.00
2023-04-02T12:52:47.540Z,99928.00
2023-04-02T12:54:21.758Z,99931.00
2023-04-02T12:55:56.672Z,99925.00
2023-04-02T12:57:36.613Z,99932.00
2023-04-02T12:59:33.617Z,99927.00
2023-04-02T13:01:22.362Z,99931.00
2023-04-02T13:03:11.378Z,99945.00
2023-04-02T13:04:49.918Z,99946.00
2023-04-02T13:06:26.882Z,99949.00
2023-04-02T13:08:00.478Z,99940.00
2023-04-02T13:09:41.612Z,99949.00
2023-04-02T13:11:15.294Z,99952.00
2023-04-02T13:12:48.487Z,99963.00
2023-04-02T13:14:24.258Z,99959.00
2023-04-02T13:16:27.685Z,99963.00
2023-04-02T13:18:08.001Z,99970.00
2023-04-02T13:19:41.234Z,99968.00
2023-04-02T13:21:28.753Z,99963.00
2023-04-02T13:23:23.689Z,99973.00
2023-04-02T13:24:57.614Z,99962.00
2023-04-02T13:26:31.267Z,99967.00
2023-04-02T13:28:04.450Z,99969.00
2023-04-02T13:29:38.002Z,99962.00
2023-04-02T13:31:17.706Z,99963.00
2023-04-02T13:32:52.563Z,99968.00
2023-04-02T13:34:25.836Z,99967.00
2023-04-02T13:35:59.536Z,99976.00
2023-04-02T13:37:32.686Z,99968.00
2023-04-02T13:39:06.676Z,99977.00
2023-04-02T13:40:41.211Z,99967.00
2023-04-02T13:42:14.584Z,99974.00
2023-04-02T13:43:47.806Z,99966.00
2023-04-02T13:45:28.855Z,99990.00
2023-04-02T13:47:02.372Z,99987.00
2023-04-02T13:48:37.170Z,99977.00
2023-04-02T13:50:17.207Z,99987.00
2023-04-02T13:51:52.844Z,99989.00
2023-04-02T13:53:33.855Z,99981.00
2023-04-02T13:55:08.870Z,99985.00
2023-04-02T13:56:42.812Z,99982.00
2023-04-02T13:58:15.963Z,99980.00
2023-04-02T13:59:49.152Z,99982.00
2023-04-02T14:01:24.885Z,99987.00
2023-04-02T14:03:07.452Z,99993.00
2023-04-02T14:04:50.036Z,99988.00
2023-04-02T14:06:49.158Z,99989.00
2023-04-02T14:08:33.658Z,100001.00
2023-04-02T14:10:23.999Z,99997.00
2023-04-02T14:12:12.041Z,99995.00
2023-04-02T14:14:33.736Z,99998.00
2023-04-02T14:16:27.825Z,99991.00
2023-04-02T14:18:29.234Z,100001.00
2023-04-02T14:20:23.345Z,100007.00
2023-04-02T14:22:12.583Z,100010.00
2023-04-02T14:24:13.697Z,100015.00
2023-04-02T14:25:58.576Z,100015.00
2023-04-02T14:27:46.500Z,100018.00
2023-04-02T14:29:29.396Z,100025.00
2023-04-02T14:31:11.363Z,100022.00
2023-04-02T14:32:58.273Z,100028.00
2023-04-02T14:34:44.961Z,100024.00
2023-04-02T14:36:29.698Z,100021.00
2023-04-02T14:38:20.497Z,100028.00
2023-04-02T14:40:10.906Z,100018.00
2023-04-02T14:41:53.229Z,100034.00
2023-04-02T14:43:32.578Z,100032.00
2023-04-02T14:45:17.606Z,100028.00
2023-04-02T14:47:00.462Z,100028.00
2023-04-02T14:48:47.660Z,100034.00
2023-04-02T14:50:27.917Z,100033.00
2023-04-02T14:52:06.946Z,100033.00
2023-04-02T14:53:55.518Z,100035.00
2023-04-02T14:55:38.132Z,100034.00
2023-04-02T14:57:18.884Z,100034.00
2023-04-02T14:59:05.355Z,100048.00
2023-04-02T15:00:44.320Z,100040.00
2023-04-02T15:02:25.121Z,100038.00
2023-04-02T15:04:04.433Z,100041.00
2023-04-02T15:05:46.251Z,100046.00
2023-04-02T15:07:28.452Z,100046.00
2023-04-02T15:09:09.920Z,100044.00
2023-04-02T15:11:02.972Z,100048.00
2023-04-02T15:12:41.793Z,100046.00
2023-04-02T15:14:21.369Z,100046.00
2023-04-02T15:15:59.839Z,100048.00
2023-04-02T15:17:33.322Z,100046.00
2023-04-02T15:19:14.748Z,100044.00
2023-04-02T15:21:02.519Z,100049.00
2023-04-02T15:22:51.127Z,100042.00
2023-04-02T15:24:34.072Z,100039.00
2023-04-02T15:26:19.510Z,100058.00
2023-04-02T15:28:08.286Z,100047.00
2023-04-02T15:29:53.544Z,100064.00
2023-04-02T15:31:29.346Z,100058.00
2023-04-02T15:33:42.236Z,100052.00
2023-04-02T15:35:31.502Z,100052.00
2023-04-02T15:37:16.020Z,100054.00
2023-04-02T15:39:01.159Z,100056.00
2023-04-02T15:40:51.554Z,100065.00
2023-04-02T15:42:30.226Z,100061.00
2023-04-02T15:44:11.160Z,100065.00
2023-04-02T15:46:03.640Z,100065.00
2023-04-02T15:47:52.716Z,100066.00
2023-04-02T15:49:47.470Z,100086.00
2023-04-02T15:51:45.298Z,100068.00
2023-04-02T15:53:35.337Z,100067.00
2023-04-02T15:55:26.505Z,100079.00
2023-04-02T15:57:19.079Z,100088.00
2023-04-02T15:59:14.411Z,100081.00
2023-04-02T16:01:04.959Z,100090.00
2023-04-02T16:03:07.584Z,100092.00
2023-04-02T16:04:56.356Z,100086.00
2023-04-02T16:06:42.954Z,100073.00
2023-04-02T16:08:38.492Z,100100.00
2023-04-02T16:10:30.629Z,100102.00
2023-04-02T16:12:18.399Z,100113.00
2023-04-02T16:13:54.670Z,100118.00
2023-04-02T16:15:37.654Z,100101.00
2023-04-02T16:17:24.852Z,100111.00
2023-04-02T16:19:16.519Z,100107.00
2023-04-02T16:20:53.876Z,100111.00
2023-04-02T16:22:30.231Z,100119.00
2023-04-02T16:24:03.580Z,100108.00
2023-04-02T16:25:53.561Z,100126.00
2023-04-02T16:27:34.149Z,100125.00
2023-04-02T16:29:25.542Z,100134.00
2023-04-02T16:31:11.615Z,100131.00
2023-04-02T16:33:11.174Z,100128.00
2023-04-02T16:35:12.696Z,100136.00
2023-04-02T16:37:01.646Z,100149.00
2023-04-02T16:38:58.875Z,100136.00
2023-04-02T16:40:42.764Z,100146.00
2023-04-02T16:42:34.998Z,100147.00
2023-04-02T16:44:19.581Z,100146.00
2023-04-02T16:46:05.069Z,100158.00
2023-04-02T16:47:57.433Z,100155.00
2023-04-02T16:49:39.784Z,100152.00
2023-04-02T16:51:21.983Z,100162.00
2023-04-02T16:53:08.260Z,100166.00
2023-04-02T16:54:57.868Z,100161.00
2023-04-02T16:56:52.498Z,100170.00
2023-04-02T16:58:47.205Z,100178.00
2023-04-02T17:00:30.785Z,100176.00
2023-04-02T17:02:21.422Z,100176.00
2023-04-02T17:04:17.432Z,100177.00
2023-04-02T17:06:02.588Z,100181.00
2023-04-02T17:07:44.286Z,100186.00
2023-04-02T17:09:23.259Z,100188.00
2023-04-02T17:11:02.075Z,100189.00
2023-04-02T17:12:46.297Z,100193.00
2023-04-02T17:14:29.654Z,100205.00
2023-04-02T17:16:14.872Z,100199.00
2023-04-02T17:17:48.488Z,100201.00
2023-04-02T17:19:26.922Z,100208.00
2023-04-02T17:21:07.330Z,100208.00
2023-04-02T17:22:40.815Z,100210.00
2023-04-02T17:24:24.792Z,100213.00
2023-04-02T17:26:06.626Z,100221.00
2023-04-02T17:27:46.285Z,100219.00
2023-04-02T17:29:26.929Z,100221.00
2023-04-02T17:31:02.015Z,100225.00
2023-04-02T17:32:37.076Z,100229.00
2023-04-02T17:34:15.587Z,100234.00
2023-04-02T17:36:02.656Z,100229.00
2023-04-02T17:37:45.098Z,100243.00
2023-04-02T17:39:25.544Z,100244.00
2023-04-02T17:41:11.799Z,100260.00
2023-04-02T17:42:58.195Z,100252.00
2023-04-02T17:44:49.933Z,100262.00
2023-04-02T17:46:35.862Z,100256.00
2023-04-02T17:48:20.290Z,100254.00
2023-04-02T17:50:24.587Z,100256.00
2023-04-02T17:52:07.098Z,100264.00
2023-04-02T17:53:58.004Z,100257.00
2023-04-02T17:55:47.124Z,100263.00
2023-04-02T17:57:38.496Z,100262.00
2023-04-02T17:59:38.353Z,100263.00
2023-04-02T18:01:22.752Z,100269.00
2023-04-02T18:03:28.651Z,100274.00
2023-04-02T18:05:17.539Z,100271.00
2023-04-02T18:07:15.704Z,100268.00
2023-04-02T18:09:19.525Z,100271.00
2023-04-02T18:11:10.434Z,100284.00
2023-04-02T18:12:58.823Z,100281.00
2023-04-02T18:14:59.484Z,100285.00
2023-04-02T18:16:57.385Z,100286.00
2023-04-02T18:18:59.279Z,100291.00
2023-04-02T18:20:39.149Z,100288.00
2023-04-02T18:22:24.111Z,100302.00
2023-04-02T18:24:20.843Z,100296.00
2023-04-02T18:26:06.908Z,100305.00
2023-04-02T18:28:00.759Z,100304.00
2023-04-02T18:29:46.163Z,100310.00
2023-04-02T18:31:34.152Z,100314.00
2023-04-02T18:33:47.005Z,100317.00
2023-04-02T18:35:27.851Z,100322.00
2023-04-02T18:37:19.881Z,100330.00
2023-04-02T18:39:02.984Z,100330.00
2023-04-02T18:40:50.854Z,100330.00
2023-04-02T18:42:47.095Z,100326.00
2023-04-02T18:44:39.737Z,100332.00
2023-04-02T18:46:30.574Z,100331.00
2023-04-02T18:48:21.296Z,100333.00
2023-04-02T18:50:15.663Z,100325.00
2023-04-02T18:52:01.951Z,100340.00
2023-04-02T18:53:35.859Z,100338.00
2023-04-02T18:55:19.214Z,100336.00
2023-04-02T18:57:01.875Z,100347.00
2023-04-02T18:58:49.213Z,100345.00
2023-04-02T19:00:30.544Z,100354.00
2023-04-02T19:02:42.313Z,100361.00
2023-04-02T19:04:23.439Z,100347.00
2023-04-02T19:06:02.952Z,100369.00
2023-04-02T19:07:42.257Z,100363.00
2023-04-02T19:09:20.858Z,100360.00
2023-04-02T19:10:59.776Z,100356.00
2023-04-02T19:12:34.111Z,100365.00
2023-04-02T19:14:13.748Z,100364.00
2023-04-02T19:16:08.238Z,100369.00
2023-04-02T19:17:47.497Z,100368.00
2023-04-02T19:19:23.752Z,100376.00
2023-04-02T19:21:04.381Z,100373.00
2023-04-02T19:22:52.221Z,100372.00
2023-04-02T19:24:42.632Z,100376.00
2023-04-02T19:26:22.128Z,100385.00
2023-04-02T19:28:10.808Z,100393.00
2023-04-02T19:30:03.042Z,100379.00
2023-04-02T19:31:49.907Z,100375.00
2023-04-02T19:33:46.159Z,100386.00
2023-04-02T19:35:25.917Z,100392.00
2023-04-02T19:37:06.549Z,100387.00
2023-04-02T19:38:56.494Z,100389.00
2023-04-02T19:40:40.926Z,100397.00
2023-04-02T19:42:30.902Z,100391.00
2023-04-02T19:44:04.403Z,100392.00
2023-04-02T19:45:40.536Z,100400.00
2023-04-02T19:47:14.878Z,100396.00
2023-04-02T19:48:59.931Z,100395.00
2023-04-02T19:50:33.113Z,100395.00
2023-04-02T19:52:06.716Z,100398.00
2023-04-02T19:53:39.844Z,100402.00
2023-04-02T19:55:12.152Z,100405.00